Create Tblcommutelog Verified Points Advance Search
| # | Trip ID | Id Commuter | Trip Date | Trip Num | Current Lat | Current Lng | Delta Distance | Current Time | Activity | Activity Confidence | Current Speed | |
|---|---|---|---|---|---|---|---|---|---|---|---|---|
| 73021 | 260120_772317_16639583_1814 | 772317 | (not set) | (not set) | 38.897428226583 | -77.026943631457 | 5.7822 | 2026-01-20 21:45:56 | in_vehicle | 100 | 1.9893247024954 | |
| 73022 | 260120_772317_16639583_1814 | 772317 | (not set) | (not set) | 38.905249887677 | -77.027024453983 | 6.3223 | 2026-01-20 21:51:08 | in_vehicle | 100 | 1.9490911691865 | |
| 73023 | 260120_772317_16639583_1814 | 772317 | (not set) | (not set) | 38.912841864972 | -77.02699292721 | 6.8462 | 2026-01-20 21:55:31 | in_vehicle | 100 | 2.1681404060905 | |
| 73024 | 260120_772317_16639583_1814 | 772317 | (not set) | (not set) | 38.920739074803 | -77.028029629821 | 7.4221 | 2026-01-20 21:59:26 | in_vehicle | 100 | 1.9803839173156 | |
| 73025 | 260120_772317_16639583_1814 | 772317 | (not set) | (not set) | 38.9247357489 | -77.032178351674 | 7.9301 | 2026-01-20 22:03:07 | in_vehicle | 100 | 1.9714431321359 | |
| 73026 | 260120_772317_16639583_1814 | 772317 | (not set) | (not set) | 38.93080209552 | -77.034251132275 | 8.4015 | 2026-01-20 22:05:57 | in_vehicle | 100 | 2.3022521837868 | |
| 73027 | 260120_772317_16639583_1814 | 772317 | (not set) | (not set) | 38.932551305396 | -77.039734064158 | 8.724 | 2026-01-20 22:07:51 | in_vehicle | 100 | 2.6509428057972 | |
| 73028 | 260120_729454_16658225_1809 | 729454 | (not set) | (not set) | 39.0133139 | -77.5022798 | 32.4228 | 2026-01-20 19:28:00 | in_vehicle | 100 | 10.129909608662 | |
| 73029 | 260120_729454_16658225_1809 | 729454 | (not set) | (not set) | 39.035816 | -77.5191025 | 34.4103 | 2026-01-20 19:30:20 | in_vehicle | 100 | 10.290843741897 | |
| 73030 | 260120_729454_16658225_1809 | 729454 | (not set) | (not set) | 39.0513884 | -77.548075 | 36.3582 | 2026-01-20 19:32:30 | in_vehicle | 100 | 10.773646141604 | |
| 73031 | 260120_729454_16658225_1809 | 729454 | (not set) | (not set) | 39.0723345 | -77.5644453 | 38.2386 | 2026-01-20 19:34:39 | in_vehicle | 100 | 10.049442542044 | |
| 73032 | 260120_729454_16658225_1809 | 729454 | (not set) | (not set) | 39.0910691 | -77.5543971 | 40.0637 | 2026-01-20 19:38:26 | in_vehicle | 100 | 4.8369647822472 | |
| 73033 | 260120_729454_16658225_1809 | 729454 | (not set) | (not set) | 39.0736695 | -77.5526734 | 41.2838 | 2026-01-20 19:41:16 | in_vehicle | 100 | 7.4432036621456 | |
| 73034 | 260120_729454_16658225_1809 | 729454 | (not set) | (not set) | 39.0831172 | -77.552481 | 42.5031 | 2026-01-20 19:45:58 | in_vehicle | 100 | 7.2599175659606 | |
| 73035 | 260120_729454_16658225_1809 | 729454 | (not set) | (not set) | 39.0909528 | -77.5625551 | 43.5397 | 2026-01-20 19:48:15 | in_vehicle | 100 | 5.4181158189312 | |
| 73036 | 260120_729454_16658225_1809 | 729454 | (not set) | (not set) | 39.1039648 | -77.5785693 | 45.1983 | 2026-01-20 19:50:55 | in_vehicle | 100 | 9.2358310906864 | |
| 73037 | 260120_729454_16658225_1809 | 729454 | (not set) | (not set) | 39.1255389 | -77.5854136 | 47.0761 | 2026-01-20 19:53:20 | in_vehicle | 100 | 8.0735290173183 | |
| 73038 | 260120_729454_16658225_1809 | 729454 | (not set) | (not set) | 39.1397887 | -77.606688 | 48.6822 | 2026-01-20 19:55:39 | in_vehicle | 100 | 9.651577601545 | |
| 73039 | 260120_791189_16660310_1858 | 791189 | (not set) | (not set) | 38.485198711937 | -77.313912768931 | 21.5263 | 2026-01-20 19:59:26 | in_vehicle | 100 | -0.44703925898772 | |
| 73040 | 260120_791189_16660310_1858 | 791189 | (not set) | (not set) | 38.458193442564 | -77.325614494087 | 23.8515 | 2026-01-20 20:00:41 | in_vehicle | 100 | 14.005739984085 |